Aérodrome :
LOGIN :

S'inscrire | Disclaimer

   EN    FR    IT 

 










Légende :    VFR   VFR Marginal   IFR   IFR Intensif   IFR Très Intensif
Visi : 
Plafond : 
>= 8 km
>= 3000ft
5 à 8 km
1000 à 3000 ft
1500m à 5 km
500 à 1000 ft
800 à 1500m
200 à 500 ft
< 800m
< 200 ft
Symboles :   Orages  Brouillard  Fortes neiges  Fortes précipitations  Vent > 20 kt
SIGMETs :   Divers  Orages  Givrage  Turbulence  Onde Orograph.  Cendres Volcan.






- Altitude de l'aérodrome : 686 ft
- Code IATA : URS


UUOK - Vostochny

DERNIER METAR :
  • 191500Z 29003MPS 4200 BR OVC003 M03/M03 Q1030 R30/090060 NOSIG RMK QBB100 QFE754/1005

METARs EXPIRÉS :
  • 191430Z 29002MPS 7000 OVC003 M03/M03 Q1030 R30/090060 NOSIG RMK QBB100 QFE753/1005
  • 191400Z 30003MPS 8000 OVC003 M03/M04 Q1030 R30/090060 NOSIG RMK QBB100 QFE753/1005
  • 191330Z 27002MPS 9000 OVC003 M03/M04 Q1030 R30/090060 NOSIG RMK QBB110 QFE753/1005
  • 191300Z 29003MPS 6000 OVC003 M03/M03 Q1030 R30/090060 NOSIG RMK QBB100 QFE753/1004
  • 191230Z 27003MPS 6000 OVC002 M02/M03 Q1029 R30/090060 NOSIG RMK QBB080 QFE753/1004

TAF TAF UUOK
Valide du 19 à 15h jusqu'au 20 à 00h UTC


191410Z 1915/1924 30003MPS 5000 BR OVC003
TEMPO 1915/1921 1000 BR OVC002



MET'MAP, la Météo Aéronautique d'un coup d'oeil ! - Copyright ORBIFLY Décembre 2007 - Disclaimer

ORBIFLY MET'MAP TEAM :

Programmation & Développement : Alexandra Zaïnal
Sur une idée originale de : Baudouin d'Aumeries
Assistance à la programmation : Marc-Olivier Méhu
Soutien technique & logistique : Manuel Goepfert

Contact : metmap@orbifly.com




SOURCES & CREDITS :

   NOAA